Shipshewana, Indiana
Current Conditions -  °F | °C
As of 11:34 AM on Tuesday 21 Oct 2014 (Local Time) from KIRS Reporting Station
Moderate Rain Moderate Rain  
Wind Chill: 44°   Ceiling: 1200
Heat Index: 46°   Visibility: 2.5mi
Dew Point: 45°   Wind: 5mph
Humidity: 93%   Direction: 340°NNW
Pressure: 30.08"   Gusts: NA
Location:  41.67°N, 85.58°W
Report Text: KIRS 211534Z AUTO 34004KT 2 1/2SM RA SCT006 OVC012 08/07 A3008 RMK AO2 VIS 2V4
Loading
Personal Weather Stations






























Interactive Weather Map
Tropical Storm Tracking
New forecast layout! Learn more

10-Day Weather Forecast

Advertisements
Track Severe Weather on mobile